sensor_id;sensor_type;location;lat;lon;timestamp;P1;durP1;ratioP1;P2;durP2;ratioP2
66129;SDS011;52930;51.464;11.764;2022-11-03T00:01:54;9.13;;;2.00;;
66129;SDS011;52930;51.464;11.764;2022-11-03T00:04:20;11.87;;;2.07;;
66129;SDS011;52930;51.464;11.764;2022-11-03T00:06:47;5.80;;;1.83;;
66129;SDS011;52930;51.464;11.764;2022-11-03T00:09:14;6.97;;;1.60;;
66129;SDS011;52930;51.464;11.764;2022-11-03T00:11:41;11.73;;;1.98;;
66129;SDS011;52930;51.464;11.764;2022-11-03T00:14:08;8.10;;;1.80;;
66129;SDS011;52930;51.464;11.764;2022-11-03T00:16:34;10.65;;;2.20;;
66129;SDS011;52930;51.464;11.764;2022-11-03T00:19:00;8.50;;;2.10;;
66129;SDS011;52930;51.464;11.764;2022-11-03T00:21:25;5.82;;;1.77;;
66129;SDS011;52930;51.464;11.764;2022-11-03T00:23:51;7.70;;;1.87;;
66129;SDS011;52930;51.464;11.764;2022-11-03T00:26:17;7.20;;;2.30;;
66129;SDS011;52930;51.464;11.764;2022-11-03T00:29:00;7.20;;;1.90;;
66129;SDS011;52930;51.464;11.764;2022-11-03T00:31:33;6.90;;;2.05;;
66129;SDS011;52930;51.464;11.764;2022-11-03T00:33:59;8.63;;;1.90;;
66129;SDS011;52930;51.464;11.764;2022-11-03T00:36:27;9.45;;;2.35;;
66129;SDS011;52930;51.464;11.764;2022-11-03T00:38:54;7.33;;;2.00;;
66129;SDS011;52930;51.464;11.764;2022-11-03T00:41:20;9.45;;;2.00;;
66129;SDS011;52930;51.464;11.764;2022-11-03T00:43:46;9.25;;;2.22;;
66129;SDS011;52930;51.464;11.764;2022-11-03T00:46:12;7.22;;;2.20;;
66129;SDS011;52930;51.464;11.764;2022-11-03T00:48:38;7.17;;;1.80;;
66129;SDS011;52930;51.464;11.764;2022-11-03T00:53:40;11.27;;;2.33;;
66129;SDS011;52930;51.464;11.764;2022-11-03T00:56:11;7.17;;;2.17;;
66129;SDS011;52930;51.464;11.764;2022-11-03T00:58:38;6.70;;;1.80;;
66129;SDS011;52930;51.464;11.764;2022-11-03T01:01:05;8.73;;;2.13;;
66129;SDS011;52930;51.464;11.764;2022-11-03T01:03:33;8.38;;;2.38;;
66129;SDS011;52930;51.464;11.764;2022-11-03T01:05:59;10.20;;;2.70;;
66129;SDS011;52930;51.464;11.764;2022-11-03T01:08:43;5.90;;;1.80;;
66129;SDS011;52930;51.464;11.764;2022-11-03T01:11:10;6.35;;;2.30;;
66129;SDS011;52930;51.464;11.764;2022-11-03T01:13:58;8.53;;;2.40;;
66129;SDS011;52930;51.464;11.764;2022-11-03T01:16:23;7.57;;;2.13;;
66129;SDS011;52930;51.464;11.764;2022-11-03T01:18:49;10.70;;;2.20;;
66129;SDS011;52930;51.464;11.764;2022-11-03T01:21:15;11.60;;;2.50;;
66129;SDS011;52930;51.464;11.764;2022-11-03T01:23:40;8.60;;;2.20;;
66129;SDS011;52930;51.464;11.764;2022-11-03T01:26:07;10.48;;;1.98;;
66129;SDS011;52930;51.464;11.764;2022-11-03T01:28:33;12.43;;;2.25;;
66129;SDS011;52930;51.464;11.764;2022-11-03T01:31:03;13.77;;;2.10;;
66129;SDS011;52930;51.464;11.764;2022-11-03T01:33:29;10.48;;;2.05;;
66129;SDS011;52930;51.464;11.764;2022-11-03T01:35:54;9.07;;;2.30;;
66129;SDS011;52930;51.464;11.764;2022-11-03T01:38:20;8.55;;;2.35;;
66129;SDS011;52930;51.464;11.764;2022-11-03T01:40:45;10.75;;;2.60;;
66129;SDS011;52930;51.464;11.764;2022-11-03T01:43:14;10.57;;;2.47;;
66129;SDS011;52930;51.464;11.764;2022-11-03T01:45:41;7.55;;;2.20;;
66129;SDS011;52930;51.464;11.764;2022-11-03T01:48:08;10.33;;;2.17;;
66129;SDS011;52930;51.464;11.764;2022-11-03T01:50:33;9.85;;;2.33;;
66129;SDS011;52930;51.464;11.764;2022-11-03T01:52:59;13.13;;;2.30;;
66129;SDS011;52930;51.464;11.764;2022-11-03T01:55:26;10.27;;;2.30;;
66129;SDS011;52930;51.464;11.764;2022-11-03T01:57:59;9.43;;;2.40;;
66129;SDS011;52930;51.464;11.764;2022-11-03T02:00:28;10.15;;;2.63;;
66129;SDS011;52930;51.464;11.764;2022-11-03T02:02:53;9.20;;;2.57;;
66129;SDS011;52930;51.464;11.764;2022-11-03T02:05:20;12.33;;;2.53;;
66129;SDS011;52930;51.464;11.764;2022-11-03T02:07:50;8.63;;;2.17;;
66129;SDS011;52930;51.464;11.764;2022-11-03T02:10:18;11.05;;;3.10;;
66129;SDS011;52930;51.464;11.764;2022-11-03T02:12:44;12.33;;;2.83;;
66129;SDS011;52930;51.464;11.764;2022-11-03T02:15:13;8.80;;;2.33;;
66129;SDS011;52930;51.464;11.764;2022-11-03T02:17:40;8.93;;;2.10;;
66129;SDS011;52930;51.464;11.764;2022-11-03T02:28:08;8.18;;;2.00;;
66129;SDS011;52930;51.464;11.764;2022-11-03T02:33:16;8.83;;;2.13;;
66129;SDS011;52930;51.464;11.764;2022-11-03T02:35:51;10.75;;;2.13;;
66129;SDS011;52930;51.464;11.764;2022-11-03T02:38:24;8.65;;;2.10;;
66129;SDS011;52930;51.464;11.764;2022-11-03T02:40:53;11.20;;;2.40;;
66129;SDS011;52930;51.464;11.764;2022-11-03T02:43:20;6.68;;;2.40;;
66129;SDS011;52930;51.464;11.764;2022-11-03T02:45:46;10.27;;;2.03;;
66129;SDS011;52930;51.464;11.764;2022-11-03T02:48:13;8.52;;;1.80;;
66129;SDS011;52930;51.464;11.764;2022-11-03T02:50:39;15.38;;;2.10;;
66129;SDS011;52930;51.464;11.764;2022-11-03T02:53:05;8.02;;;2.28;;
66129;SDS011;52930;51.464;11.764;2022-11-03T02:55:35;11.93;;;2.10;;
66129;SDS011;52930;51.464;11.764;2022-11-03T03:00:35;10.87;;;2.77;;
66129;SDS011;52930;51.464;11.764;2022-11-03T03:03:09;6.97;;;2.53;;
66129;SDS011;52930;51.464;11.764;2022-11-03T03:05:37;8.65;;;2.22;;
66129;SDS011;52930;51.464;11.764;2022-11-03T03:08:06;7.53;;;2.08;;
66129;SDS011;52930;51.464;11.764;2022-11-03T03:10:34;9.00;;;2.10;;
66129;SDS011;52930;51.464;11.764;2022-11-03T03:13:03;9.53;;;2.13;;
66129;SDS011;52930;51.464;11.764;2022-11-03T03:20:54;7.00;;;2.03;;
66129;SDS011;52930;51.464;11.764;2022-11-03T03:23:25;11.73;;;2.33;;
66129;SDS011;52930;51.464;11.764;2022-11-03T03:31:00;8.20;;;2.53;;
66129;SDS011;52930;51.464;11.764;2022-11-03T03:33:27;9.30;;;2.13;;
66129;SDS011;52930;51.464;11.764;2022-11-03T03:35:54;15.38;;;2.83;;
66129;SDS011;52930;51.464;11.764;2022-11-03T03:38:31;9.77;;;2.13;;
66129;SDS011;52930;51.464;11.764;2022-11-03T03:40:59;12.02;;;2.40;;
66129;SDS011;52930;51.464;11.764;2022-11-03T03:43:27;9.77;;;2.43;;
66129;SDS011;52930;51.464;11.764;2022-11-03T03:45:53;9.75;;;2.50;;
66129;SDS011;52930;51.464;11.764;2022-11-03T03:48:20;8.75;;;2.50;;
66129;SDS011;52930;51.464;11.764;2022-11-03T03:50:46;15.37;;;3.03;;
66129;SDS011;52930;51.464;11.764;2022-11-03T03:53:14;8.18;;;2.70;;
66129;SDS011;52930;51.464;11.764;2022-11-03T03:55:42;9.15;;;2.78;;
66129;SDS011;52930;51.464;11.764;2022-11-03T03:58:12;12.40;;;2.45;;
66129;SDS011;52930;51.464;11.764;2022-11-03T04:00:38;11.10;;;2.47;;
66129;SDS011;52930;51.464;11.764;2022-11-03T04:03:04;10.77;;;2.33;;
66129;SDS011;52930;51.464;11.764;2022-11-03T04:05:31;11.85;;;2.70;;
66129;SDS011;52930;51.464;11.764;2022-11-03T04:07:56;9.77;;;2.80;;
66129;SDS011;52930;51.464;11.764;2022-11-03T04:10:22;7.60;;;2.53;;
66129;SDS011;52930;51.464;11.764;2022-11-03T04:12:48;8.73;;;2.43;;
66129;SDS011;52930;51.464;11.764;2022-11-03T04:15:32;8.82;;;2.72;;
66129;SDS011;52930;51.464;11.764;2022-11-03T04:18:16;8.18;;;2.60;;
66129;SDS011;52930;51.464;11.764;2022-11-03T04:21:01;9.23;;;3.03;;
66129;SDS011;52930;51.464;11.764;2022-11-03T04:23:45;12.00;;;2.87;;
66129;SDS011;52930;51.464;11.764;2022-11-03T04:26:14;15.68;;;3.35;;
66129;SDS011;52930;51.464;11.764;2022-11-03T04:28:41;11.40;;;2.63;;
66129;SDS011;52930;51.464;11.764;2022-11-03T04:31:14;11.27;;;3.25;;
66129;SDS011;52930;51.464;11.764;2022-11-03T04:33:40;8.77;;;3.10;;
66129;SDS011;52930;51.464;11.764;2022-11-03T04:38:38;15.75;;;4.35;;
66129;SDS011;52930;51.464;11.764;2022-11-03T04:41:11;15.83;;;4.67;;
66129;SDS011;52930;51.464;11.764;2022-11-03T04:43:41;14.73;;;5.40;;
66129;SDS011;52930;51.464;11.764;2022-11-03T04:46:09;16.42;;;4.75;;
66129;SDS011;52930;51.464;11.764;2022-11-03T04:48:36;14.02;;;4.50;;
66129;SDS011;52930;51.464;11.764;2022-11-03T04:51:04;17.07;;;5.10;;
66129;SDS011;52930;51.464;11.764;2022-11-03T04:53:39;15.00;;;4.55;;
66129;SDS011;52930;51.464;11.764;2022-11-03T04:56:12;14.77;;;4.72;;
66129;SDS011;52930;51.464;11.764;2022-11-03T04:58:39;13.40;;;4.73;;
66129;SDS011;52930;51.464;11.764;2022-11-03T05:01:05;17.70;;;5.53;;
66129;SDS011;52930;51.464;11.764;2022-11-03T05:03:35;18.97;;;6.40;;
66129;SDS011;52930;51.464;11.764;2022-11-03T05:06:01;18.20;;;6.07;;
66129;SDS011;52930;51.464;11.764;2022-11-03T05:08:34;16.70;;;6.30;;
66129;SDS011;52930;51.464;11.764;2022-11-03T05:10:59;21.10;;;6.53;;
66129;SDS011;52930;51.464;11.764;2022-11-03T05:13:25;21.25;;;6.38;;
66129;SDS011;52930;51.464;11.764;2022-11-03T05:15:52;16.42;;;6.00;;
66129;SDS011;52930;51.464;11.764;2022-11-03T05:18:19;16.65;;;5.70;;
66129;SDS011;52930;51.464;11.764;2022-11-03T05:20:50;15.70;;;5.78;;
66129;SDS011;52930;51.464;11.764;2022-11-03T05:23:24;12.63;;;4.97;;
66129;SDS011;52930;51.464;11.764;2022-11-03T05:25:52;15.43;;;5.23;;
66129;SDS011;52930;51.464;11.764;2022-11-03T05:30:43;16.60;;;5.40;;
66129;SDS011;52930;51.464;11.764;2022-11-03T05:33:19;21.13;;;6.13;;
66129;SDS011;52930;51.464;11.764;2022-11-03T05:36:24;20.08;;;5.70;;
66129;SDS011;52930;51.464;11.764;2022-11-03T05:38:50;23.17;;;6.13;;
66129;SDS011;52930;51.464;11.764;2022-11-03T05:41:23;16.85;;;6.38;;
66129;SDS011;52930;51.464;11.764;2022-11-03T05:43:57;19.83;;;7.00;;
66129;SDS011;52930;51.464;11.764;2022-11-03T05:46:30;23.73;;;7.18;;
66129;SDS011;52930;51.464;11.764;2022-11-03T05:48:57;21.23;;;6.97;;
66129;SDS011;52930;51.464;11.764;2022-11-03T05:51:27;20.50;;;7.27;;
66129;SDS011;52930;51.464;11.764;2022-11-03T05:53:55;22.60;;;5.93;;
66129;SDS011;52930;51.464;11.764;2022-11-03T05:56:22;16.52;;;5.45;;
66129;SDS011;52930;51.464;11.764;2022-11-03T05:58:49;20.33;;;5.45;;
66129;SDS011;52930;51.464;11.764;2022-11-03T06:01:22;18.35;;;5.22;;
66129;SDS011;52930;51.464;11.764;2022-11-03T06:03:50;14.73;;;5.17;;
66129;SDS011;52930;51.464;11.764;2022-11-03T06:08:48;17.03;;;4.57;;
66129;SDS011;52930;51.464;11.764;2022-11-03T06:11:15;14.05;;;4.75;;
66129;SDS011;52930;51.464;11.764;2022-11-03T06:13:45;15.15;;;4.30;;
66129;SDS011;52930;51.464;11.764;2022-11-03T06:18:45;15.23;;;4.97;;
66129;SDS011;52930;51.464;11.764;2022-11-03T06:21:12;15.93;;;3.83;;
66129;SDS011;52930;51.464;11.764;2022-11-03T06:23:39;12.65;;;4.53;;
66129;SDS011;52930;51.464;11.764;2022-11-03T06:26:10;13.50;;;4.05;;
66129;SDS011;52930;51.464;11.764;2022-11-03T06:28:38;12.65;;;3.47;;
66129;SDS011;52930;51.464;11.764;2022-11-03T06:31:04;11.50;;;3.17;;
66129;SDS011;52930;51.464;11.764;2022-11-03T06:33:36;9.87;;;3.73;;
66129;SDS011;52930;51.464;11.764;2022-11-03T06:36:07;14.48;;;3.92;;
66129;SDS011;52930;51.464;11.764;2022-11-03T06:38:37;12.27;;;3.30;;
66129;SDS011;52930;51.464;11.764;2022-11-03T06:41:03;9.85;;;2.97;;
66129;SDS011;52930;51.464;11.764;2022-11-03T06:43:39;10.47;;;3.40;;
66129;SDS011;52930;51.464;11.764;2022-11-03T06:46:25;15.18;;;3.25;;
66129;SDS011;52930;51.464;11.764;2022-11-03T06:48:51;9.77;;;2.55;;
66129;SDS011;52930;51.464;11.764;2022-11-03T06:51:18;11.20;;;2.70;;
66129;SDS011;52930;51.464;11.764;2022-11-03T06:53:45;9.55;;;2.65;;
66129;SDS011;52930;51.464;11.764;2022-11-03T06:56:14;11.43;;;2.83;;
66129;SDS011;52930;51.464;11.764;2022-11-03T06:58:41;15.77;;;2.70;;
66129;SDS011;52930;51.464;11.764;2022-11-03T07:01:14;8.05;;;1.88;;
66129;SDS011;52930;51.464;11.764;2022-11-03T07:03:41;10.30;;;2.33;;
66129;SDS011;52930;51.464;11.764;2022-11-03T07:08:36;15.88;;;2.85;;
66129;SDS011;52930;51.464;11.764;2022-11-03T07:13:38;11.02;;;2.25;;
66129;SDS011;52930;51.464;11.764;2022-11-03T07:16:03;9.97;;;2.77;;
66129;SDS011;52930;51.464;11.764;2022-11-03T07:18:36;11.70;;;3.07;;
66129;SDS011;52930;51.464;11.764;2022-11-03T07:21:06;11.52;;;3.22;;
66129;SDS011;52930;51.464;11.764;2022-11-03T07:23:57;7.28;;;2.45;;
66129;SDS011;52930;51.464;11.764;2022-11-03T07:26:24;11.13;;;2.83;;
66129;SDS011;52930;51.464;11.764;2022-11-03T07:28:50;11.37;;;2.00;;
66129;SDS011;52930;51.464;11.764;2022-11-03T07:31:19;8.35;;;2.53;;
66129;SDS011;52930;51.464;11.764;2022-11-03T07:33:46;12.10;;;2.53;;
66129;SDS011;52930;51.464;11.764;2022-11-03T07:36:14;10.90;;;2.88;;
66129;SDS011;52930;51.464;11.764;2022-11-03T07:38:42;9.20;;;3.00;;
66129;SDS011;52930;51.464;11.764;2022-11-03T07:41:10;8.02;;;2.05;;
66129;SDS011;52930;51.464;11.764;2022-11-03T07:43:43;9.27;;;2.78;;
66129;SDS011;52930;51.464;11.764;2022-11-03T07:46:20;8.80;;;2.42;;
66129;SDS011;52930;51.464;11.764;2022-11-03T07:48:47;8.80;;;2.63;;
66129;SDS011;52930;51.464;11.764;2022-11-03T07:54:09;8.63;;;2.42;;
66129;SDS011;52930;51.464;11.764;2022-11-03T07:56:47;10.50;;;2.22;;
66129;SDS011;52930;51.464;11.764;2022-11-03T07:59:19;9.85;;;2.10;;
66129;SDS011;52930;51.464;11.764;2022-11-03T08:01:53;11.15;;;2.38;;
66129;SDS011;52930;51.464;11.764;2022-11-03T08:04:27;7.95;;;1.90;;
66129;SDS011;52930;51.464;11.764;2022-11-03T08:06:54;11.07;;;2.33;;
66129;SDS011;52930;51.464;11.764;2022-11-03T08:09:20;7.10;;;1.95;;
66129;SDS011;52930;51.464;11.764;2022-11-03T08:11:45;11.30;;;1.98;;
66129;SDS011;52930;51.464;11.764;2022-11-03T08:14:11;5.97;;;1.87;;
66129;SDS011;52930;51.464;11.764;2022-11-03T08:16:37;8.23;;;2.05;;
66129;SDS011;52930;51.464;11.764;2022-11-03T08:19:03;7.45;;;1.83;;
66129;SDS011;52930;51.464;11.764;2022-11-03T08:21:28;9.40;;;1.80;;
66129;SDS011;52930;51.464;11.764;2022-11-03T08:23:54;11.43;;;1.63;;
66129;SDS011;52930;51.464;11.764;2022-11-03T08:26:19;6.45;;;2.00;;
66129;SDS011;52930;51.464;11.764;2022-11-03T08:28:45;7.03;;;1.90;;
66129;SDS011;52930;51.464;11.764;2022-11-03T08:31:10;7.75;;;2.00;;
66129;SDS011;52930;51.464;11.764;2022-11-03T08:33:36;9.40;;;1.97;;
66129;SDS011;52930;51.464;11.764;2022-11-03T08:36:02;6.50;;;1.87;;
66129;SDS011;52930;51.464;11.764;2022-11-03T08:38:28;8.45;;;1.73;;
66129;SDS011;52930;51.464;11.764;2022-11-03T08:40:54;7.57;;;1.70;;
66129;SDS011;52930;51.464;11.764;2022-11-03T08:43:19;9.63;;;1.92;;
66129;SDS011;52930;51.464;11.764;2022-11-03T08:45:45;7.87;;;1.90;;
66129;SDS011;52930;51.464;11.764;2022-11-03T08:48:11;7.57;;;1.70;;
66129;SDS011;52930;51.464;11.764;2022-11-03T08:50:37;6.97;;;1.60;;
66129;SDS011;52930;51.464;11.764;2022-11-03T08:53:02;8.07;;;2.38;;
66129;SDS011;52930;51.464;11.764;2022-11-03T08:55:27;6.30;;;1.90;;
66129;SDS011;52930;51.464;11.764;2022-11-03T08:57:53;9.37;;;2.30;;
66129;SDS011;52930;51.464;11.764;2022-11-03T09:00:18;6.73;;;1.50;;
66129;SDS011;52930;51.464;11.764;2022-11-03T09:02:43;11.03;;;2.00;;
66129;SDS011;52930;51.464;11.764;2022-11-03T09:05:10;8.68;;;1.80;;
66129;SDS011;52930;51.464;11.764;2022-11-03T09:07:36;9.75;;;1.50;;
66129;SDS011;52930;51.464;11.764;2022-11-03T09:10:03;8.07;;;1.37;;
66129;SDS011;52930;51.464;11.764;2022-11-03T09:12:30;4.90;;;1.10;;
66129;SDS011;52930;51.464;11.764;2022-11-03T09:14:55;8.37;;;1.80;;
66129;SDS011;52930;51.464;11.764;2022-11-03T09:17:20;8.27;;;1.47;;
66129;SDS011;52930;51.464;11.764;2022-11-03T09:19:46;7.53;;;1.17;;
66129;SDS011;52930;51.464;11.764;2022-11-03T09:22:11;8.75;;;1.52;;
66129;SDS011;52930;51.464;11.764;2022-11-03T09:24:36;6.00;;;1.40;;
66129;SDS011;52930;51.464;11.764;2022-11-03T09:27:02;7.13;;;1.70;;
66129;SDS011;52930;51.464;11.764;2022-11-03T09:29:28;8.57;;;1.70;;
66129;SDS011;52930;51.464;11.764;2022-11-03T09:31:54;6.07;;;1.70;;
66129;SDS011;52930;51.464;11.764;2022-11-03T09:34:19;5.80;;;1.60;;
66129;SDS011;52930;51.464;11.764;2022-11-03T09:36:45;7.67;;;1.70;;
66129;SDS011;52930;51.464;11.764;2022-11-03T09:39:10;9.27;;;1.90;;
66129;SDS011;52930;51.464;11.764;2022-11-03T09:41:35;14.48;;;2.33;;
66129;SDS011;52930;51.464;11.764;2022-11-03T09:44:01;8.23;;;1.80;;
66129;SDS011;52930;51.464;11.764;2022-11-03T09:46:27;8.87;;;1.50;;
66129;SDS011;52930;51.464;11.764;2022-11-03T09:48:53;7.20;;;1.33;;
66129;SDS011;52930;51.464;11.764;2022-11-03T09:51:20;6.32;;;1.70;;
66129;SDS011;52930;51.464;11.764;2022-11-03T09:53:46;7.57;;;2.27;;
66129;SDS011;52930;51.464;11.764;2022-11-03T09:56:12;6.93;;;1.73;;
66129;SDS011;52930;51.464;11.764;2022-11-03T09:58:38;9.85;;;1.92;;
66129;SDS011;52930;51.464;11.764;2022-11-03T10:01:04;7.20;;;1.60;;
66129;SDS011;52930;51.464;11.764;2022-11-03T10:03:30;7.13;;;1.52;;
66129;SDS011;52930;51.464;11.764;2022-11-03T10:05:55;7.80;;;1.50;;
66129;SDS011;52930;51.464;11.764;2022-11-03T10:08:22;8.30;;;1.63;;
66129;SDS011;52930;51.464;11.764;2022-11-03T10:10:50;5.60;;;1.60;;
66129;SDS011;52930;51.464;11.764;2022-11-03T10:13:23;4.70;;;1.08;;
66129;SDS011;52930;51.464;11.764;2022-11-03T10:15:53;7.68;;;1.90;;
66129;SDS011;52930;51.464;11.764;2022-11-03T10:18:19;5.43;;;1.00;;
66129;SDS011;52930;51.464;11.764;2022-11-03T10:20:45;10.07;;;1.60;;
66129;SDS011;52930;51.464;11.764;2022-11-03T10:23:10;7.53;;;1.50;;
66129;SDS011;52930;51.464;11.764;2022-11-03T10:25:39;7.47;;;1.50;;
66129;SDS011;52930;51.464;11.764;2022-11-03T10:28:16;5.65;;;1.42;;
66129;SDS011;52930;51.464;11.764;2022-11-03T10:30:57;7.43;;;1.50;;
66129;SDS011;52930;51.464;11.764;2022-11-03T10:33:28;7.47;;;1.60;;
66129;SDS011;52930;51.464;11.764;2022-11-03T10:36:04;6.00;;;1.60;;
66129;SDS011;52930;51.464;11.764;2022-11-03T10:38:39;5.88;;;1.23;;
66129;SDS011;52930;51.464;11.764;2022-11-03T10:43:33;6.30;;;1.00;;
66129;SDS011;52930;51.464;11.764;2022-11-03T10:46:13;7.75;;;0.90;;
66129;SDS011;52930;51.464;11.764;2022-11-03T10:48:40;7.67;;;1.00;;
66129;SDS011;52930;51.464;11.764;2022-11-03T10:51:08;9.88;;;1.00;;
66129;SDS011;52930;51.464;11.764;2022-11-03T10:53:35;7.25;;;1.25;;
66129;SDS011;52930;51.464;11.764;2022-11-03T10:56:01;6.28;;;1.50;;
66129;SDS011;52930;51.464;11.764;2022-11-03T10:58:26;4.27;;;1.20;;
66129;SDS011;52930;51.464;11.764;2022-11-03T11:00:52;5.77;;;1.13;;
66129;SDS011;52930;51.464;11.764;2022-11-03T11:03:17;7.93;;;1.10;;
66129;SDS011;52930;51.464;11.764;2022-11-03T11:05:44;5.50;;;1.10;;
66129;SDS011;52930;51.464;11.764;2022-11-03T11:08:10;5.00;;;0.50;;
66129;SDS011;52930;51.464;11.764;2022-11-03T11:10:38;6.70;;;1.30;;
66129;SDS011;52930;51.464;11.764;2022-11-03T11:18:06;4.90;;;1.05;;
66129;SDS011;52930;51.464;11.764;2022-11-03T11:20:38;8.10;;;1.20;;
66129;SDS011;52930;51.464;11.764;2022-11-03T11:28:36;5.22;;;1.08;;
66129;SDS011;52930;51.464;11.764;2022-11-03T11:31:27;6.10;;;0.90;;
66129;SDS011;52930;51.464;11.764;2022-11-03T11:42:07;4.68;;;1.40;;
66129;SDS011;52930;51.464;11.764;2022-11-03T11:55:29;5.53;;;1.02;;
66129;SDS011;52930;51.464;11.764;2022-11-03T11:57:57;5.88;;;1.10;;
66129;SDS011;52930;51.464;11.764;2022-11-03T12:00:24;5.35;;;1.42;;
66129;SDS011;52930;51.464;11.764;2022-11-03T12:02:51;4.80;;;0.93;;
66129;SDS011;52930;51.464;11.764;2022-11-03T12:05:18;4.57;;;1.13;;
66129;SDS011;52930;51.464;11.764;2022-11-03T12:07:51;4.15;;;1.00;;
66129;SDS011;52930;51.464;11.764;2022-11-03T12:10:18;8.10;;;1.25;;
66129;SDS011;52930;51.464;11.764;2022-11-03T12:12:46;5.22;;;1.10;;
66129;SDS011;52930;51.464;11.764;2022-11-03T12:18:28;5.13;;;1.20;;
66129;SDS011;52930;51.464;11.764;2022-11-03T12:20:53;5.93;;;1.02;;
66129;SDS011;52930;51.464;11.764;2022-11-03T12:26:10;4.90;;;0.95;;
66129;SDS011;52930;51.464;11.764;2022-11-03T12:28:40;7.05;;;1.20;;
66129;SDS011;52930;51.464;11.764;2022-11-03T12:31:05;6.93;;;1.13;;
66129;SDS011;52930;51.464;11.764;2022-11-03T12:33:31;7.80;;;1.30;;
66129;SDS011;52930;51.464;11.764;2022-11-03T12:35:56;4.07;;;1.00;;
66129;SDS011;52930;51.464;11.764;2022-11-03T12:38:22;6.22;;;1.10;;
66129;SDS011;52930;51.464;11.764;2022-11-03T12:40:48;5.40;;;1.20;;
66129;SDS011;52930;51.464;11.764;2022-11-03T12:43:14;6.85;;;1.20;;
66129;SDS011;52930;51.464;11.764;2022-11-03T12:45:39;7.78;;;1.50;;
66129;SDS011;52930;51.464;11.764;2022-11-03T12:48:05;9.80;;;2.47;;
66129;SDS011;52930;51.464;11.764;2022-11-03T12:50:31;5.22;;;1.83;;
66129;SDS011;52930;51.464;11.764;2022-11-03T12:52:57;5.40;;;0.87;;
66129;SDS011;52930;51.464;11.764;2022-11-03T12:55:22;6.60;;;1.00;;
66129;SDS011;52930;51.464;11.764;2022-11-03T12:57:47;5.77;;;1.20;;
66129;SDS011;52930;51.464;11.764;2022-11-03T13:00:13;7.40;;;1.30;;
66129;SDS011;52930;51.464;11.764;2022-11-03T13:02:39;7.73;;;1.30;;
66129;SDS011;52930;51.464;11.764;2022-11-03T13:05:04;7.03;;;1.13;;
66129;SDS011;52930;51.464;11.764;2022-11-03T13:07:31;4.00;;;0.83;;
66129;SDS011;52930;51.464;11.764;2022-11-03T13:09:56;5.72;;;0.80;;
66129;SDS011;52930;51.464;11.764;2022-11-03T13:12:22;8.57;;;2.57;;
66129;SDS011;52930;51.464;11.764;2022-11-03T13:14:59;8.77;;;1.23;;
66129;SDS011;52930;51.464;11.764;2022-11-03T13:17:26;7.53;;;2.50;;
66129;SDS011;52930;51.464;11.764;2022-11-03T13:19:51;10.47;;;3.50;;
66129;SDS011;52930;51.464;11.764;2022-11-03T13:22:17;14.50;;;7.07;;
66129;SDS011;52930;51.464;11.764;2022-11-03T13:24:42;7.07;;;2.40;;
66129;SDS011;52930;51.464;11.764;2022-11-03T13:27:08;19.77;;;7.25;;
66129;SDS011;52930;51.464;11.764;2022-11-03T13:29:33;22.85;;;9.15;;
66129;SDS011;52930;51.464;11.764;2022-11-03T13:31:58;16.93;;;6.23;;
66129;SDS011;52930;51.464;11.764;2022-11-03T13:34:24;15.83;;;6.10;;
66129;SDS011;52930;51.464;11.764;2022-11-03T13:36:49;15.13;;;5.03;;
66129;SDS011;52930;51.464;11.764;2022-11-03T13:39:15;26.67;;;9.70;;
66129;SDS011;52930;51.464;11.764;2022-11-03T13:41:40;11.57;;;3.90;;
66129;SDS011;52930;51.464;11.764;2022-11-03T13:44:05;7.88;;;1.75;;
66129;SDS011;52930;51.464;11.764;2022-11-03T13:46:32;5.33;;;1.40;;
66129;SDS011;52930;51.464;11.764;2022-11-03T13:48:58;5.55;;;1.45;;
66129;SDS011;52930;51.464;11.764;2022-11-03T13:51:23;7.57;;;2.50;;
66129;SDS011;52930;51.464;11.764;2022-11-03T13:53:49;10.10;;;2.50;;
66129;SDS011;52930;51.464;11.764;2022-11-03T13:56:14;6.93;;;2.60;;
66129;SDS011;52930;51.464;11.764;2022-11-03T13:58:39;13.53;;;2.50;;
66129;SDS011;52930;51.464;11.764;2022-11-03T14:01:05;8.13;;;1.90;;
66129;SDS011;52930;51.464;11.764;2022-11-03T14:03:30;9.23;;;2.58;;
66129;SDS011;52930;51.464;11.764;2022-11-03T14:05:55;7.50;;;2.00;;
66129;SDS011;52930;51.464;11.764;2022-11-03T14:08:21;6.83;;;1.87;;
66129;SDS011;52930;51.464;11.764;2022-11-03T14:10:46;7.87;;;1.97;;
66129;SDS011;52930;51.464;11.764;2022-11-03T14:13:11;5.70;;;1.70;;
66129;SDS011;52930;51.464;11.764;2022-11-03T14:15:37;8.17;;;1.77;;
66129;SDS011;52930;51.464;11.764;2022-11-03T14:18:02;5.43;;;1.87;;
66129;SDS011;52930;51.464;11.764;2022-11-03T14:20:27;5.57;;;1.67;;
66129;SDS011;52930;51.464;11.764;2022-11-03T14:22:53;8.98;;;2.28;;
66129;SDS011;52930;51.464;11.764;2022-11-03T14:25:18;10.10;;;2.17;;
66129;SDS011;52930;51.464;11.764;2022-11-03T14:27:44;5.87;;;2.70;;
66129;SDS011;52930;51.464;11.764;2022-11-03T14:30:11;9.10;;;2.70;;
66129;SDS011;52930;51.464;11.764;2022-11-03T14:32:37;7.68;;;2.00;;
66129;SDS011;52930;51.464;11.764;2022-11-03T14:35:02;8.27;;;2.33;;
66129;SDS011;52930;51.464;11.764;2022-11-03T14:37:28;6.55;;;1.70;;
66129;SDS011;52930;51.464;11.764;2022-11-03T14:39:54;7.47;;;1.53;;
66129;SDS011;52930;51.464;11.764;2022-11-03T14:42:19;8.37;;;1.80;;
66129;SDS011;52930;51.464;11.764;2022-11-03T14:44:45;7.15;;;2.00;;
66129;SDS011;52930;51.464;11.764;2022-11-03T14:47:15;11.77;;;3.37;;
66129;SDS011;52930;51.464;11.764;2022-11-03T14:49:41;6.97;;;1.65;;
66129;SDS011;52930;51.464;11.764;2022-11-03T14:52:07;13.65;;;3.80;;
66129;SDS011;52930;51.464;11.764;2022-11-03T14:54:33;8.68;;;2.90;;
66129;SDS011;52930;51.464;11.764;2022-11-03T14:57:00;7.13;;;2.42;;
66129;SDS011;52930;51.464;11.764;2022-11-03T14:59:25;12.25;;;2.58;;
66129;SDS011;52930;51.464;11.764;2022-11-03T15:01:51;8.03;;;1.77;;
66129;SDS011;52930;51.464;11.764;2022-11-03T15:04:17;16.00;;;5.00;;
66129;SDS011;52930;51.464;11.764;2022-11-03T15:06:43;25.37;;;9.27;;
66129;SDS011;52930;51.464;11.764;2022-11-03T15:09:09;21.63;;;7.00;;
66129;SDS011;52930;51.464;11.764;2022-11-03T15:11:35;16.77;;;5.82;;
66129;SDS011;52930;51.464;11.764;2022-11-03T15:14:01;10.57;;;3.27;;
66129;SDS011;52930;51.464;11.764;2022-11-03T15:16:27;9.35;;;2.58;;
66129;SDS011;52930;51.464;11.764;2022-11-03T15:18:52;12.07;;;1.90;;
66129;SDS011;52930;51.464;11.764;2022-11-03T15:21:18;8.00;;;2.07;;
66129;SDS011;52930;51.464;11.764;2022-11-03T15:23:43;10.20;;;1.95;;
66129;SDS011;52930;51.464;11.764;2022-11-03T15:26:09;14.50;;;5.53;;
66129;SDS011;52930;51.464;11.764;2022-11-03T15:28:36;30.88;;;17.92;;
66129;SDS011;52930;51.464;11.764;2022-11-03T15:31:02;6.97;;;2.20;;
66129;SDS011;52930;51.464;11.764;2022-11-03T15:33:27;9.27;;;2.50;;
66129;SDS011;52930;51.464;11.764;2022-11-03T15:35:52;17.57;;;6.97;;
66129;SDS011;52930;51.464;11.764;2022-11-03T15:38:18;7.90;;;2.80;;
66129;SDS011;52930;51.464;11.764;2022-11-03T15:40:43;9.00;;;2.77;;
66129;SDS011;52930;51.464;11.764;2022-11-03T15:43:09;6.07;;;1.70;;
66129;SDS011;52930;51.464;11.764;2022-11-03T15:45:35;12.30;;;2.40;;
66129;SDS011;52930;51.464;11.764;2022-11-03T15:48:00;7.47;;;2.17;;
66129;SDS011;52930;51.464;11.764;2022-11-03T15:50:26;7.13;;;1.60;;
66129;SDS011;52930;51.464;11.764;2022-11-03T15:52:51;9.60;;;1.87;;
66129;SDS011;52930;51.464;11.764;2022-11-03T15:55:17;9.57;;;2.05;;
66129;SDS011;52930;51.464;11.764;2022-11-03T15:57:43;6.90;;;1.80;;